Time;durP1;ratioP1;P1;durP2;ratioP2;P2;SDS_P1;SDS_P2;PMS_P1;PMS_P2;Temp;Humidity;BMP_temperature;BMP_pressure;BME280_temperature;BME280_humidity;BME280_pressure;Samples;Min_cycle;Max_cycle;Signal;HPM_P1;HPM_P2
2022/08/04 00:01:02;;;;;;;10.38;2.40;;;41.60;37.30;;;;;;5046324;28;20048;-65
2022/08/04 00:03:43;;;;;;;14.50;2.22;;;41.60;38.50;;;;;;5030029;28;20410;-66
2022/08/04 00:06:23;;;;;;;12.00;2.55;;;41.60;38.50;;;;;;5027933;28;20052;-64
2022/08/04 00:09:00;;;;;;;5.43;2.25;;;41.60;38.10;;;;;;5029604;28;20523;-63
2022/08/04 00:11:32;;;;;;;12.60;2.65;;;41.30;51.80;;;;;;5032642;28;20059;-66
2022/08/04 00:14:04;;;;;;;14.85;2.50;;;41.70;37.80;;;;;;5028134;28;20054;-65
2022/08/04 00:16:36;;;;;;;10.43;2.70;;;41.80;37.70;;;;;;5049078;28;20551;-65
2022/08/04 00:19:15;;;;;;;12.63;2.40;;;41.80;37.90;;;;;;5023146;28;20025;-66
2022/08/04 00:21:46;;;;;;;9.05;2.20;;;41.90;37.90;;;;;;5018470;28;20018;-65
2022/08/04 00:24:15;;;;;;;9.30;2.35;;;41.80;37.30;;;;;;5031407;28;20029;-64
2022/08/04 00:26:41;;;;;;;16.33;2.30;;;41.90;38.10;;;;;;5045802;28;20096;-65
2022/08/04 00:29:09;;;;;;;10.68;2.40;;;42.00;37.40;;;;;;5026984;28;20025;-64
2022/08/04 00:31:36;;;;;;;11.20;2.78;;;42.00;37.30;;;;;;5015419;28;20174;-64
2022/08/04 00:34:03;;;;;;;16.45;3.03;;;42.00;37.10;;;;;;5038016;28;20025;-65
2022/08/04 00:36:30;;;;;;;9.13;2.17;;;42.00;37.20;;;;;;5045657;28;20021;-64
2022/08/04 00:38:59;;;;;;;19.48;3.08;;;42.00;37.40;;;;;;5036629;28;20536;-65
2022/08/04 00:41:50;;;;;;;6.85;2.10;;;41.60;50.40;;;;;;5037387;28;20466;-66
2022/08/04 00:44:39;;;;;;;16.40;2.38;;;41.80;37.30;;;;;;5034112;28;20532;-65
2022/08/04 00:47:18;;;;;;;13.30;2.00;;;41.80;37.30;;;;;;5028895;28;20196;-65
2022/08/04 00:49:47;;;;;;;14.65;2.25;;;41.70;37.40;;;;;;5035660;28;20565;-65
2022/08/04 00:52:22;;;;;;;9.65;1.88;;;41.40;37.80;;;;;;5040726;28;20122;-65
2022/08/04 00:54:58;;;;;;;15.63;2.00;;;41.50;42.50;;;;;;5034989;28;20026;-65
2022/08/04 00:58:06;;;;;;;10.38;2.17;;;41.60;37.10;;;;;;5044549;28;20417;-66
2022/08/04 01:00:43;;;;;;;13.60;2.72;;;41.60;37.30;;;;;;4988479;28;20081;-66
2022/08/04 01:03:34;;;;;;;15.95;2.83;;;41.60;37.50;;;;;;4989074;28;20059;-64
2022/08/04 01:06:03;;;;;;;24.75;3.17;;;41.50;40.10;;;;;;4988353;28;20120;-65
2022/08/04 01:09:03;;;;;;;25.88;3.50;;;41.40;42.90;;;;;;4970889;28;20058;-64
2022/08/04 01:11:42;;;;;;;27.23;3.67;;;41.30;43.30;;;;;;4989214;28;20436;-65
2022/08/04 01:14:17;;;;;;;17.27;2.85;;;40.90;44.40;;;;;;4973147;28;20059;-67
2022/08/04 01:16:51;;;;;;;37.55;3.90;;;41.00;44.80;;;;;;4989691;28;20057;-64
2022/08/04 01:19:40;;;;;;;33.10;3.97;;;40.90;45.20;;;;;;4989886;28;20059;-66
2022/08/04 01:22:29;;;;;;;25.05;4.05;;;40.70;45.20;;;;;;4988379;28;20055;-64
2022/08/04 01:25:28;;;;;;;23.80;4.05;;;40.70;45.50;;;;;;4985755;28;20121;-64
2022/08/04 01:28:34;;;;;;;30.20;3.85;;;40.60;46.10;;;;;;4987287;28;20153;-67
2022/08/04 01:31:14;;;;;;;29.23;3.35;;;40.40;46.40;;;;;;4987437;28;20083;-64
2022/08/04 01:33:44;;;;;;;24.13;4.03;;;40.30;46.70;;;;;;4987736;28;20053;-63
2022/08/04 01:36:11;;;;;;;25.38;3.83;;;40.10;46.80;;;;;;4987718;28;20124;-65
2022/08/04 01:38:41;;;;;;;35.60;4.70;;;40.10;47.00;;;;;;5023996;28;20064;-66
2022/08/04 01:41:10;;;;;;;21.27;4.13;;;40.00;47.30;;;;;;5033490;28;20054;-67
2022/08/04 01:43:46;;;;;;;30.73;3.75;;;39.90;47.50;;;;;;5033025;28;20056;-67
2022/08/04 01:46:13;;;;;;;;;;;39.80;47.80;;;;;;5036088;28;20062;-66
2022/08/04 01:48:41;;;;;;;34.05;3.60;;;39.80;47.90;;;;;;5038640;28;20016;-69
2022/08/04 01:51:09;;;;;;;28.35;3.65;;;39.80;47.90;;;;;;5049319;28;20071;-66
2022/08/04 01:53:38;;;;;;;27.25;3.90;;;39.70;48.10;;;;;;5032479;28;20072;-67
2022/08/04 01:56:09;;;;;;;22.98;4.00;;;39.60;48.30;;;;;;5000823;28;20114;-68
2022/08/04 01:58:38;;;;;;;25.20;3.58;;;39.50;48.50;;;;;;5019337;28;20575;-69
2022/08/04 02:01:12;;;;;;;27.92;3.95;;;39.40;49.00;;;;;;5046045;28;20065;-69
2022/08/04 02:03:44;;;;;;;27.27;4.68;;;39.30;49.40;;;;;;5035199;28;20147;-69
2022/08/04 02:06:18;;;;;;;28.27;4.40;;;39.10;49.40;;;;;;5031838;28;20093;-68
2022/08/04 02:09:00;;;;;;;29.00;4.53;;;39.10;49.50;;;;;;5045081;28;20128;-69
2022/08/04 02:11:26;;;;;;;18.88;3.13;;;39.10;49.90;;;;;;5017009;28;20108;-69
2022/08/04 02:14:04;;;;;;;24.25;4.00;;;39.00;50.20;;;;;;5034927;28;20423;-66
2022/08/04 02:16:46;;;;;;;29.63;4.30;;;38.90;50.20;;;;;;5035937;28;20098;-66
2022/08/04 02:19:24;;;;;;;24.40;6.82;;;38.80;50.20;;;;;;5047015;28;20078;-68
2022/08/04 02:21:57;;;;;;;24.77;3.75;;;38.70;50.00;;;;;;5044399;28;20071;-66
2022/08/04 02:24:27;;;;;;;22.85;3.72;;;38.60;49.70;;;;;;5033531;28;20086;-65
2022/08/04 02:26:55;;;;;;;22.42;4.15;;;38.50;50.20;;;;;;5033004;28;20091;-66
2022/08/04 02:29:39;;;;;;;27.98;4.57;;;38.50;50.30;;;;;;5047241;28;20066;-66
2022/08/04 02:32:14;;;;;;;22.15;3.78;;;38.40;50.40;;;;;;5044352;28;20075;-66
2022/08/04 02:35:06;;;;;;;23.85;4.38;;;38.40;74.50;;;;;;5041891;28;20091;-67
2022/08/04 02:37:32;;;;;;;21.55;3.42;;;38.20;50.30;;;;;;5033911;28;20091;-67
2022/08/04 02:40:02;;;;;;;30.65;4.53;;;38.10;50.20;;;;;;5035152;28;20135;-68
2022/08/04 02:42:29;;;;;;;30.77;4.70;;;38.10;50.60;;;;;;5044116;28;20108;-68
2022/08/04 02:44:58;;;;;;;25.33;4.10;;;38.10;50.90;;;;;;5040742;28;20096;-68
2022/08/04 02:47:26;;;;;;;21.55;3.63;;;38.00;50.60;;;;;;5041489;28;20153;-66
2022/08/04 02:49:53;;;;;;;25.60;3.70;;;37.90;50.80;;;;;;5029650;28;20079;-67
2022/08/04 02:52:20;;;;;;;34.22;4.28;;;37.80;51.00;;;;;;5021302;28;20075;-65
2022/08/04 02:54:52;;;;;;;22.60;3.83;;;37.80;51.20;;;;;;5030468;28;20112;-67
2022/08/04 02:57:20;;;;;;;33.70;4.55;;;37.70;51.30;;;;;;5033843;28;20420;-65
2022/08/04 03:00:11;;;;;;;27.38;4.13;;;37.60;50.70;;;;;;5025662;28;20082;-66
2022/08/04 03:02:58;;;;;;;29.55;3.75;;;37.60;51.30;;;;;;5023710;28;20056;-66
2022/08/04 03:05:53;;;;;;;24.75;3.45;;;37.60;51.20;;;;;;5035438;28;20068;-66
2022/08/04 03:08:58;;;;;;;35.85;3.70;;;37.20;75.10;;;;;;4968274;28;20116;-64
2022/08/04 03:11:37;;;;;;;20.92;3.22;;;37.40;54.80;;;;;;4954637;28;20030;-66
2022/08/04 03:14:21;;;;;;;19.95;3.53;;;37.10;55.30;;;;;;4952939;28;20177;-69
2022/08/04 03:17:18;;;;;;;24.67;3.67;;;37.30;50.80;;;;;;4968409;28;20425;-64
2022/08/04 03:19:58;;;;;;;22.48;3.33;;;37.30;50.80;;;;;;4960536;28;20495;-68
2022/08/04 03:22:35;;;;;;;39.83;4.00;;;37.20;50.90;;;;;;4969082;28;20078;-63
2022/08/04 03:25:24;;;;;;;26.27;3.47;;;37.10;50.40;;;;;;4968356;28;20077;-64
2022/08/04 03:28:27;;;;;;;35.63;4.82;;;37.10;50.40;;;;;;4947322;28;20084;-66
2022/08/04 03:31:16;;;;;;;30.67;3.83;;;37.00;49.90;;;;;;4970100;28;20106;-66
2022/08/04 03:34:07;;;;;;;27.10;4.05;;;37.00;50.40;;;;;;4951915;28;20485;-65
2022/08/04 03:36:42;;;;;;;36.92;3.88;;;37.00;50.40;;;;;;4968754;28;20074;-66
2022/08/04 03:39:47;;;;;;;27.73;4.45;;;37.00;50.30;;;;;;4958674;28;20149;-65
2022/08/04 03:42:28;;;;;;;37.42;4.18;;;36.90;50.40;;;;;;4946885;28;20567;-66
2022/08/04 03:45:32;;;;;;;31.50;4.05;;;36.90;50.60;;;;;;4981285;28;20101;-66
2022/08/04 03:48:26;;;;;;;31.88;3.55;;;36.80;50.70;;;;;;5046244;28;20140;-66
2022/08/04 03:54:34;;;;;;;36.00;4.20;;;36.70;50.40;;;;;;5031088;28;20091;-66
2022/08/04 03:57:16;;;;;;;33.67;3.67;;;36.70;51.10;;;;;;5031609;28;20523;-67
2022/08/04 04:00:12;;;;;;;30.77;4.18;;;36.70;51.30;;;;;;5030687;28;20168;-66
2022/08/04 04:02:56;;;;;;;32.75;3.67;;;36.80;84.90;;;;;;5039690;28;20079;-65
2022/08/04 04:05:44;;;;;;;26.48;4.35;;;36.50;51.20;;;;;;5045024;28;20039;-65
2022/08/04 04:08:45;;;;;;;27.80;4.00;;;36.60;51.90;;;;;;5027007;28;20072;-64
2022/08/04 04:11:21;;;;;;;31.77;3.75;;;36.50;52.20;;;;;;5028859;28;20101;-65
2022/08/04 04:14:10;;;;;;;24.38;3.45;;;36.40;52.00;;;;;;5049638;28;20517;-66
2022/08/04 04:16:49;;;;;;;35.10;4.60;;;36.40;52.30;;;;;;5039125;28;20040;-65
2022/08/04 04:19:34;;;;;;;37.65;4.45;;;37.10;58.90;;;;;;5038335;28;20086;-67
2022/08/04 04:22:27;;;;;;;19.23;3.95;;;35.50;70.00;;;;;;5037593;28;20431;-64
2022/08/04 04:25:44;;;;;;;29.67;4.15;;;36.50;80.30;;;;;;5037592;28;20021;-63
2022/08/04 04:28:38;;;;;;;23.58;4.00;;;36.20;53.40;;;;;;5014860;28;20052;-67
2022/08/04 04:31:46;;;;;;;32.95;3.28;;;36.20;53.50;;;;;;5064469;28;20155;-65
2022/08/04 04:34:46;;;;;;;24.98;3.83;;;36.30;78.10;;;;;;4969010;28;20033;-66
2022/08/04 04:37:51;;;;;;;37.20;4.57;;;35.80;77.60;;;;;;5037401;28;20040;-65
2022/08/04 04:40:32;;;;;;;30.55;3.85;;;35.80;60.00;;;;;;5038308;28;20033;-66
2022/08/04 04:43:22;;;;;;;22.83;3.03;;;36.00;53.70;;;;;;5039235;28;20607;-65
2022/08/04 04:46:15;;;;;;;27.55;4.13;;;36.00;87.90;;;;;;5064069;28;20073;-64
2022/08/04 04:48:53;;;;;;;20.80;3.72;;;35.60;56.00;;;;;;5066638;28;20045;-65
2022/08/04 04:51:32;;;;;;;23.13;4.03;;;35.90;53.70;;;;;;5039801;28;20029;-66
2022/08/04 04:54:22;;;;;;;18.73;3.63;;;36.00;84.60;;;;;;5039956;28;20071;-67
2022/08/04 04:57:12;;;;;;;22.02;3.95;;;35.80;53.90;;;;;;5036471;28;20546;-67
2022/08/04 05:00:01;;;;;;;24.67;4.00;;;35.80;54.00;;;;;;5067668;28;20124;-65
2022/08/04 05:03:00;;;;;;;24.70;3.25;;;35.70;54.20;;;;;;5034791;28;20435;-64
2022/08/04 05:05:59;;;;;;;23.95;3.50;;;35.70;54.30;;;;;;5052199;28;20164;-65
2022/08/04 05:09:10;;;;;;;26.00;3.50;;;35.60;54.00;;;;;;5044367;28;20177;-64
2022/08/04 05:11:54;;;;;;;20.73;3.65;;;35.60;54.20;;;;;;5022533;28;20088;-66
2022/08/04 05:14:32;;;;;;;18.00;3.63;;;35.60;54.10;;;;;;5036605;28;21394;-66
2022/08/04 05:17:03;;;;;;;32.10;3.47;;;35.60;54.00;;;;;;5032649;28;20073;-64
2022/08/04 05:19:54;;;;;;;30.77;3.45;;;35.60;54.10;;;;;;5037558;28;20065;-65
2022/08/04 05:22:20;;;;;;;17.42;3.63;;;35.60;54.30;;;;;;5030900;28;20075;-66
2022/08/04 05:24:52;;;;;;;18.27;3.30;;;35.60;54.90;;;;;;5042572;28;20082;-65
2022/08/04 05:27:27;;;;;;;15.95;3.47;;;35.60;55.20;;;;;;5048541;28;20082;-64
2022/08/04 05:30:03;;;;;;;28.63;3.78;;;35.60;54.80;;;;;;5051823;28;20081;-65
2022/08/04 05:32:43;;;;;;;28.65;3.85;;;35.60;54.70;;;;;;5018381;28;20081;-66
2022/08/04 05:35:15;;;;;;;15.48;3.42;;;35.50;54.70;;;;;;5033005;28;20070;-64
2022/08/04 05:37:48;;;;;;;22.38;3.45;;;35.50;54.90;;;;;;5048813;28;20067;-65
2022/08/04 05:40:18;;;;;;;24.83;3.47;;;35.50;55.20;;;;;;5019060;28;20783;-65
2022/08/04 05:42:45;;;;;;;24.30;4.00;;;35.50;55.50;;;;;;5028945;28;20082;-67
2022/08/04 05:45:12;;;;;;;22.35;10.98;;;35.50;55.80;;;;;;5033387;28;20076;-64
2022/08/04 05:47:39;;;;;;;19.23;5.90;;;35.40;55.60;;;;;;5064018;28;20110;-66
2022/08/04 05:50:07;;;;;;;18.15;4.10;;;35.40;55.90;;;;;;5047423;28;20095;-66
2022/08/04 05:52:36;;;;;;;16.55;3.25;;;35.40;55.70;;;;;;5037732;28;20065;-65
2022/08/04 05:55:04;;;;;;;17.00;3.47;;;35.40;55.70;;;;;;5036306;28;20099;-65
2022/08/04 05:57:32;;;;;;;14.27;3.50;;;35.30;56.10;;;;;;5037570;28;20073;-67
2022/08/04 06:00:05;;;;;;;16.60;3.08;;;35.40;55.90;;;;;;5039691;28;20083;-67
2022/08/04 06:02:34;;;;;;;13.07;3.80;;;35.30;56.00;;;;;;5026332;28;20095;-67
2022/08/04 06:05:04;;;;;;;16.10;4.07;;;35.30;56.30;;;;;;5022759;28;20090;-65
2022/08/04 06:07:31;;;;;;;15.00;3.58;;;35.20;56.20;;;;;;5020623;28;21463;-67
2022/08/04 06:09:57;;;;;;;14.90;3.40;;;35.30;56.60;;;;;;5043451;28;20175;-65
2022/08/04 06:12:37;;;;;;;24.77;3.60;;;35.20;56.40;;;;;;5024739;28;20078;-65
2022/08/04 06:15:05;;;;;;;16.52;3.85;;;35.20;56.70;;;;;;5042919;28;20437;-67
2022/08/04 06:17:44;;;;;;;22.27;4.63;;;35.20;56.40;;;;;;5022625;28;20065;-66
2022/08/04 06:20:13;;;;;;;20.08;3.92;;;35.10;55.80;;;;;;5025135;28;20093;-65
2022/08/04 06:22:42;;;;;;;14.77;3.25;;;35.20;55.40;;;;;;5040518;28;20473;-65
2022/08/04 06:25:12;;;;;;;16.35;3.60;;;35.10;53.10;;;;;;5039534;28;20164;-66
2022/08/04 06:27:40;;;;;;;17.95;3.67;;;35.20;53.30;;;;;;5024233;28;20104;-65
2022/08/04 06:30:13;;;;;;;13.65;3.45;;;35.10;53.80;;;;;;5010717;28;20173;-65
2022/08/04 06:32:55;;;;;;;22.02;3.58;;;35.10;52.70;;;;;;5025242;28;20121;-65
2022/08/04 06:35:24;;;;;;;18.60;5.10;;;35.10;53.10;;;;;;5032325;28;20124;-65
2022/08/04 06:37:52;;;;;;;16.90;3.75;;;35.00;54.80;;;;;;5042776;28;20064;-66
2022/08/04 06:40:22;;;;;;;15.63;4.03;;;35.00;55.80;;;;;;5022445;28;20100;-67
2022/08/04 06:42:50;;;;;;;22.05;3.92;;;35.10;56.30;;;;;;5028870;28;20420;-65
2022/08/04 06:45:18;;;;;;;21.60;3.80;;;35.00;55.80;;;;;;5035863;28;20072;-65
2022/08/04 06:47:46;;;;;;;11.43;3.40;;;35.00;55.40;;;;;;5028837;28;20103;-65
2022/08/04 06:50:16;;;;;;;15.60;3.70;;;35.00;55.80;;;;;;5016981;28;20088;-67
2022/08/04 06:52:44;;;;;;;14.10;3.42;;;34.90;55.40;;;;;;5014210;28;20071;-65
2022/08/04 06:55:14;;;;;;;15.00;3.00;;;34.90;55.00;;;;;;5030608;28;20101;-66
2022/08/04 06:57:42;;;;;;;16.95;3.25;;;34.80;55.60;;;;;;5049768;28;20111;-66
2022/08/04 07:00:12;;;;;;;14.68;2.72;;;34.80;55.60;;;;;;5044790;28;20462;-66
2022/08/04 07:02:49;;;;;;;16.80;2.85;;;34.80;55.20;;;;;;5036907;28;20164;-66
2022/08/04 07:05:17;;;;;;;11.18;3.00;;;34.70;55.10;;;;;;5044326;28;20565;-66
2022/08/04 07:07:44;;;;;;;12.52;3.17;;;34.70;55.20;;;;;;5015893;28;20084;-65
2022/08/04 07:10:11;;;;;;;16.08;3.30;;;34.60;55.30;;;;;;5035969;28;20084;-65
2022/08/04 07:12:39;;;;;;;11.85;3.15;;;34.60;55.40;;;;;;5044049;28;20107;-66
2022/08/04 07:15:07;;;;;;;10.77;3.13;;;34.50;55.60;;;;;;5030790;28;20168;-66
2022/08/04 07:17:38;;;;;;;17.70;3.47;;;34.50;55.70;;;;;;5019060;28;20431;-65
2022/08/04 07:20:05;;;;;;;18.90;4.68;;;34.50;56.00;;;;;;5055064;28;20102;-65
2022/08/04 07:22:33;;;;;;;12.93;3.45;;;34.40;56.00;;;;;;5046439;28;20080;-66
2022/08/04 07:25:00;;;;;;;14.77;3.13;;;34.40;56.30;;;;;;5048190;28;20080;-68
2022/08/04 07:27:27;;;;;;;16.48;3.95;;;34.30;56.30;;;;;;5035590;28;20172;-66
2022/08/04 07:29:54;;;;;;;14.93;3.40;;;34.30;56.60;;;;;;5033873;28;20135;-66
2022/08/04 07:32:21;;;;;;;21.98;4.82;;;34.30;56.70;;;;;;5031916;28;20408;-66
2022/08/04 07:34:51;;;;;;;17.63;5.00;;;34.30;56.80;;;;;;5036146;28;20516;-67
2022/08/04 07:37:18;;;;;;;15.45;4.30;;;34.20;56.90;;;;;;5045331;28;20068;-65
2022/08/04 07:39:44;;;;;;;18.10;3.90;;;34.20;57.00;;;;;;5030465;28;20124;-64
2022/08/04 07:42:11;;;;;;;14.13;3.60;;;34.20;57.20;;;;;;5021452;28;20167;-66
2022/08/04 07:44:38;;;;;;;17.05;3.80;;;34.20;57.40;;;;;;5043533;28;20426;-67
2022/08/04 07:47:07;;;;;;;18.85;3.55;;;34.20;57.70;;;;;;5043561;28;20088;-66
2022/08/04 07:49:35;;;;;;;12.23;3.72;;;34.10;58.10;;;;;;5036830;28;20183;-66
2022/08/04 07:52:02;;;;;;;15.75;3.22;;;34.10;58.20;;;;;;5029517;28;20088;-67
2022/08/04 07:54:29;;;;;;;19.95;3.20;;;34.10;58.40;;;;;;5034666;28;20092;-67
2022/08/04 07:56:56;;;;;;;16.50;3.05;;;34.10;58.50;;;;;;5041747;28;20084;-67
2022/08/04 07:59:23;;;;;;;16.58;2.85;;;34.00;58.80;;;;;;5015694;28;20100;-66
2022/08/04 08:01:50;;;;;;;12.73;2.72;;;33.90;59.00;;;;;;5018452;28;20076;-68
2022/08/04 08:04:17;;;;;;;13.70;3.22;;;33.90;59.20;;;;;;5031408;28;20156;-66
2022/08/04 08:06:44;;;;;;;11.35;3.17;;;33.90;59.60;;;;;;5045690;28;20072;-65
2022/08/04 08:09:13;;;;;;;12.77;3.10;;;33.80;60.30;;;;;;5032015;28;20092;-68
2022/08/04 08:11:46;;;;;;;10.30;3.17;;;33.80;60.10;;;;;;5031495;28;20088;-67
2022/08/04 08:14:12;;;;;;;16.50;2.92;;;33.80;60.40;;;;;;5031949;28;20069;-66
2022/08/04 08:16:39;;;;;;;13.70;2.90;;;33.70;60.50;;;;;;5044839;28;20522;-67
2022/08/04 08:19:06;;;;;;;16.80;3.35;;;33.70;60.80;;;;;;5027596;28;20731;-66
2022/08/04 08:21:33;;;;;;;22.30;3.47;;;33.60;61.00;;;;;;5046686;28;20137;-67
2022/08/04 08:24:00;;;;;;;18.08;3.35;;;33.50;61.10;;;;;;5042032;28;20618;-66
2022/08/04 08:26:26;;;;;;;19.65;3.00;;;33.60;61.40;;;;;;5039293;28;20114;-67
2022/08/04 08:28:53;;;;;;;16.30;3.05;;;33.50;61.40;;;;;;5037343;28;20574;-68
2022/08/04 08:31:19;;;;;;;24.98;3.80;;;33.50;61.50;;;;;;5030647;28;20093;-64
2022/08/04 08:33:47;;;;;;;16.30;3.40;;;33.50;62.20;;;;;;5032882;28;20135;-64
2022/08/04 08:36:40;;;;;;;15.32;2.83;;;33.50;62.10;;;;;;5033558;28;20612;-65
2022/08/04 08:39:11;;;;;;;19.70;3.30;;;33.50;62.10;;;;;;5032488;28;20138;-67
2022/08/04 08:42:15;;;;;;;11.23;3.08;;;33.50;62.30;;;;;;5044238;28;20081;-66
2022/08/04 08:44:59;;;;;;;14.10;3.30;;;33.50;62.50;;;;;;5030106;28;20184;-65
2022/08/04 08:47:47;;;;;;;15.15;2.83;;;33.40;62.90;;;;;;5031382;28;20088;-67
2022/08/04 08:50:43;;;;;;;13.30;3.47;;;33.30;63.10;;;;;;5062074;28;20101;-66
2022/08/04 08:53:29;;;;;;;12.48;3.08;;;33.30;63.20;;;;;;5025584;28;20176;-63
2022/08/04 08:56:17;;;;;;;13.88;2.92;;;33.30;63.60;;;;;;5034301;28;20168;-64
2022/08/04 08:59:21;;;;;;;9.43;3.47;;;33.20;63.70;;;;;;5034640;28;20069;-63
2022/08/04 09:02:16;;;;;;;13.93;3.63;;;33.20;64.10;;;;;;5015017;28;20079;-64
2022/08/04 09:05:01;;;;;;;18.00;3.50;;;33.20;64.50;;;;;;4994645;28;20105;-65
2022/08/04 09:07:46;;;;;;;15.65;3.45;;;33.10;64.20;;;;;;5033708;28;20103;-64
2022/08/04 09:10:27;;;;;;;14.15;3.38;;;33.00;64.30;;;;;;5030933;28;20101;-65
2022/08/04 09:13:07;;;;;;;17.60;3.63;;;32.90;64.50;;;;;;5039969;28;20072;-65
2022/08/04 09:16:10;;;;;;;14.43;3.55;;;32.90;64.90;;;;;;5032718;28;20536;-69
2022/08/04 09:19:00;;;;;;;14.57;4.13;;;32.90;65.30;;;;;;5037306;28;20138;-67
2022/08/04 09:21:43;;;;;;;15.02;3.25;;;32.80;65.80;;;;;;5033154;28;20080;-67
2022/08/04 09:24:37;;;;;;;18.48;3.40;;;32.70;66.80;;;;;;5032833;28;20079;-65
2022/08/04 09:27:23;;;;;;;15.25;3.58;;;32.70;67.40;;;;;;5048651;28;20080;-66
2022/08/04 09:30:11;;;;;;;14.55;3.90;;;32.70;69.10;;;;;;5032011;28;20097;-68
2022/08/04 09:33:14;;;;;;;24.70;4.25;;;32.70;70.30;;;;;;5032508;28;20498;-64
2022/08/04 09:36:33;;;;;;;14.20;4.05;;;32.60;71.00;;;;;;5033716;28;20065;-63
2022/08/04 09:39:05;;;;;;;17.00;3.88;;;32.50;71.90;;;;;;4956256;28;20418;-66
2022/08/04 09:42:06;;;;;;;14.13;3.42;;;32.40;72.50;;;;;;4955587;28;20106;-65
2022/08/04 09:44:54;;;;;;;14.90;3.75;;;32.50;73.10;;;;;;4955343;28;20159;-65
2022/08/04 09:47:28;;;;;;;16.35;3.53;;;32.40;73.40;;;;;;4955945;28;20105;-64
2022/08/04 09:50:15;;;;;;;16.20;3.50;;;32.40;73.70;;;;;;4988497;28;20639;-65
2022/08/04 09:53:02;;;;;;;20.65;3.83;;;32.30;73.90;;;;;;4971680;28;20070;-66
2022/08/04 09:55:42;;;;;;;17.35;3.92;;;32.30;74.30;;;;;;4976690;28;20073;-66
2022/08/04 09:58:23;;;;;;;12.45;3.95;;;32.20;74.50;;;;;;4969607;28;20165;-64
2022/08/04 10:01:00;;;;;;;17.13;4.97;;;32.20;74.40;;;;;;4970951;28;20076;-66
2022/08/04 10:03:33;;;;;;;12.63;3.90;;;32.20;74.50;;;;;;4959072;28;20148;-65
2022/08/04 10:06:14;;;;;;;15.65;4.50;;;32.20;75.10;;;;;;4972225;28;20454;-64
2022/08/04 10:09:19;;;;;;;21.33;5.05;;;32.20;75.50;;;;;;4978612;28;20138;-63
2022/08/04 10:12:03;;;;;;;20.88;4.85;;;32.10;75.60;;;;;;5010533;28;20105;-65
2022/08/04 10:15:28;;;;;;;11.98;4.30;;;32.10;75.50;;;;;;5041820;28;20082;-66
2022/08/04 10:18:12;;;;;;;14.55;4.30;;;32.00;75.30;;;;;;5017740;28;20082;-64
2022/08/04 10:20:42;;;;;;;16.00;4.28;;;32.10;75.70;;;;;;5035175;28;20069;-65
2022/08/04 10:23:37;;;;;;;17.42;4.65;;;32.10;75.40;;;;;;5032977;28;20100;-65
2022/08/04 10:26:46;;;;;;;17.50;4.32;;;32.10;75.30;;;;;;5033065;28;20070;-65
2022/08/04 10:29:44;;;;;;;18.83;4.97;;;32.00;75.00;;;;;;5046119;28;20522;-65
2022/08/04 10:32:41;;;;;;;16.58;4.32;;;31.90;74.50;;;;;;5030355;28;20080;-64
2022/08/04 10:35:13;;;;;;;13.82;4.47;;;31.90;74.80;;;;;;5044815;28;20431;-67
2022/08/04 10:38:01;;;;;;;16.60;5.22;;;31.80;74.80;;;;;;5036480;28;20450;-64
2022/08/04 10:40:47;;;;;;;18.85;5.15;;;31.80;74.70;;;;;;5046196;28;20080;-63
2022/08/04 10:43:34;;;;;;;16.63;4.83;;;31.80;74.60;;;;;;5048411;28;20166;-64
2022/08/04 10:46:10;;;;;;;23.42;5.47;;;31.80;74.60;;;;;;5035168;28;20306;-67
2022/08/04 10:48:42;;;;;;;21.98;4.70;;;31.80;74.30;;;;;;5041614;28;20121;-65
2022/08/04 10:51:33;;;;;;;14.30;4.60;;;31.80;74.50;;;;;;5034709;28;20162;-65
2022/08/04 10:54:05;;;;;;;18.80;5.38;;;31.70;74.80;;;;;;5063051;28;20092;-65
2022/08/04 10:56:40;;;;;;;17.23;5.28;;;31.70;74.90;;;;;;5044885;28;20094;-64
2022/08/04 10:59:39;;;;;;;21.63;5.32;;;31.70;75.00;;;;;;5031774;28;20090;-68
2022/08/04 11:02:21;;;;;;;17.83;5.22;;;31.70;75.30;;;;;;5030735;28;20085;-65
2022/08/04 11:04:58;;;;;;;24.70;4.50;;;31.70;75.80;;;;;;5044178;28;20733;-64
2022/08/04 11:07:29;;;;;;;19.05;4.60;;;31.70;75.60;;;;;;5032553;28;20097;-65
2022/08/04 11:09:56;;;;;;;19.90;4.55;;;31.70;75.80;;;;;;5031980;28;20135;-64
2022/08/04 11:12:25;;;;;;;15.55;4.68;;;31.70;75.90;;;;;;5025781;28;20105;-64
2022/08/04 11:15:18;;;;;;;20.58;4.43;;;31.70;75.90;;;;;;5038809;28;20066;-67
2022/08/04 11:17:49;;;;;;;19.13;4.13;;;31.70;76.20;;;;;;5046013;28;20072;-64
2022/08/04 11:20:24;;;;;;;38.47;5.30;;;31.70;76.00;;;;;;5048781;28;20549;-65
2022/08/04 11:23:14;;;;;;;29.42;3.92;;;31.70;76.40;;;;;;5033434;28;20157;-65
2022/08/04 11:26:06;;;;;;;17.95;4.13;;;31.60;76.40;;;;;;5046856;28;20551;-65
2022/08/04 11:28:55;;;;;;;22.35;3.75;;;31.60;75.60;;;;;;5034232;28;20198;-65
2022/08/04 11:31:42;;;;;;;15.68;3.97;;;31.60;75.50;;;;;;5045989;28;20081;-65
2022/08/04 11:34:22;;;;;;;15.82;3.85;;;31.50;74.60;;;;;;5033116;28;20108;-67
2022/08/04 11:37:07;;;;;;;10.05;3.30;;;31.60;74.00;;;;;;5046547;28;20099;-66
2022/08/04 11:39:38;;;;;;;16.60;3.08;;;31.50;73.70;;;;;;5044462;28;20083;-64
2022/08/04 11:42:25;;;;;;;12.63;3.10;;;31.50;73.70;;;;;;5019461;28;20138;-67
2022/08/04 11:44:59;;;;;;;14.57;3.35;;;31.50;73.80;;;;;;5037093;28;20070;-67
2022/08/04 11:47:50;;;;;;;17.45;3.15;;;31.50;73.60;;;;;;5030196;28;20070;-65
2022/08/04 11:50:28;;;;;;;11.55;3.20;;;31.50;73.90;;;;;;5030500;28;21036;-68
2022/08/04 11:52:57;;;;;;;8.88;2.58;;;31.60;73.50;;;;;;5063394;28;20172;-66
2022/08/04 11:55:26;;;;;;;13.30;3.38;;;31.50;73.90;;;;;;5045275;28;20156;-66
2022/08/04 11:57:53;;;;;;;15.48;3.85;;;31.50;72.90;;;;;;5031035;28;20081;-66
2022/08/04 12:00:20;;;;;;;10.27;3.30;;;31.50;72.70;;;;;;5032021;28;20500;-65
2022/08/04 12:03:10;;;;;;;16.80;3.28;;;31.50;73.00;;;;;;5024652;28;20541;-66
2022/08/04 12:06:02;;;;;;;12.90;4.00;;;31.50;73.00;;;;;;5036935;28;20069;-65
2022/08/04 12:08:50;;;;;;;12.43;3.45;;;31.50;73.30;;;;;;5030793;28;20076;-69
2022/08/04 12:11:26;;;;;;;14.32;3.30;;;31.50;73.90;;;;;;5040382;28;20757;-67
2022/08/04 12:14:14;;;;;;;13.35;3.08;;;31.40;75.20;;;;;;5031405;28;20069;-68
2022/08/04 12:17:00;;;;;;;12.88;3.00;;;31.50;76.10;;;;;;5030602;28;20072;-67
2022/08/04 12:19:27;;;;;;;13.75;3.17;;;31.40;76.60;;;;;;5032356;28;20104;-68
2022/08/04 12:22:04;;;;;;;12.90;3.08;;;31.40;77.10;;;;;;5044585;28;20088;-67
2022/08/04 12:24:33;;;;;;;14.15;3.78;;;31.40;77.10;;;;;;5027573;28;20122;-66
2022/08/04 12:27:10;;;;;;;15.57;3.50;;;31.40;77.50;;;;;;5030431;28;20492;-66
2022/08/04 12:29:40;;;;;;;12.65;3.25;;;31.30;77.50;;;;;;5030660;28;20529;-65
2022/08/04 12:32:35;;;;;;;14.13;3.22;;;31.30;77.30;;;;;;5030492;28;20204;-66
2022/08/04 12:35:29;;;;;;;18.48;3.70;;;31.30;77.40;;;;;;5021610;28;20531;-66
2022/08/04 12:38:14;;;;;;;14.30;3.90;;;31.30;78.00;;;;;;5036505;28;20168;-67
2022/08/04 12:40:50;;;;;;;23.17;4.63;;;31.30;78.30;;;;;;5033254;28;20808;-65
2022/08/04 12:43:35;;;;;;;18.52;4.15;;;31.30;78.90;;;;;;5033535;28;20077;-65
2022/08/04 12:46:08;;;;;;;15.77;4.22;;;31.20;79.00;;;;;;5016186;28;20102;-65
2022/08/04 12:48:37;;;;;;;16.65;4.90;;;31.20;79.10;;;;;;5022263;28;20173;-65
2022/08/04 12:51:07;;;;;;;17.10;4.53;;;31.20;79.10;;;;;;5039713;28;20094;-66
2022/08/04 12:53:40;;;;;;;19.42;4.60;;;31.10;79.50;;;;;;5028528;28;20167;-65
2022/08/04 12:56:10;;;;;;;19.02;3.95;;;31.10;79.60;;;;;;5046947;28;20133;-67
2022/08/04 12:58:40;;;;;;;20.05;4.18;;;31.10;80.00;;;;;;5049232;28;20532;-68
2022/08/04 13:01:10;;;;;;;16.50;3.90;;;31.10;80.30;;;;;;5024480;28;20096;-66
2022/08/04 13:03:49;;;;;;;18.30;4.15;;;31.00;80.30;;;;;;5033181;28;20340;-66
2022/08/04 13:06:16;;;;;;;17.02;4.20;;;31.00;80.70;;;;;;5033521;28;20084;-65
2022/08/04 13:08:45;;;;;;;15.73;3.92;;;31.00;80.70;;;;;;5041559;28;20093;-66
2022/08/04 13:11:13;;;;;;;17.30;4.85;;;31.00;80.40;;;;;;5023017;28;20176;-64
2022/08/04 13:13:42;;;;;;;28.13;5.35;;;31.00;81.00;;;;;;5046152;28;20074;-67
2022/08/04 13:16:10;;;;;;;25.30;6.63;;;31.00;81.10;;;;;;5035731;28;20085;-64
2022/08/04 13:18:45;;;;;;;21.13;8.23;;;31.00;81.50;;;;;;5021242;28;20078;-64
2022/08/04 13:21:13;;;;;;;23.38;8.50;;;31.00;81.30;;;;;;5045650;28;20177;-66
2022/08/04 13:23:41;;;;;;;19.92;8.23;;;31.00;81.80;;;;;;5034607;28;20074;-65
2022/08/04 13:26:08;;;;;;;33.25;9.35;;;31.00;82.00;;;;;;5026937;28;20115;-64
2022/08/04 13:28:41;;;;;;;30.55;9.30;;;31.00;82.20;;;;;;5034613;28;20084;-65
2022/08/04 13:31:13;;;;;;;19.45;8.05;;;31.00;82.20;;;;;;5040573;28;20089;-64
2022/08/04 13:33:42;;;;;;;22.83;8.55;;;31.00;82.50;;;;;;5016761;28;20134;-67
2022/08/04 13:36:09;;;;;;;27.33;8.10;;;31.00;82.30;;;;;;5032830;28;20076;-65
2022/08/04 13:38:40;;;;;;;31.55;7.32;;;31.00;82.40;;;;;;5023561;28;20167;-64